Time;durP1;ratioP1;P1;durP2;ratioP2;P2;SDS_P1;SDS_P2;PMS_P1;PMS_P2;Temp;Humidity;BMP_temperature;BMP_pressure;BME280_temperature;BME280_humidity;BME280_pressure;Samples;Min_cycle;Max_cycle;Signal;HPM_P1;HPM_P2
2023/03/17 00:01:05;;;;;;;15.68;12.75;;;;;;;4.92;100.00;100838.63;5007536;28;20087;-74
2023/03/17 00:03:36;;;;;;;11.93;9.38;;;;;;;4.10;100.00;100708.81;5005962;28;20041;-75
2023/03/17 00:06:03;;;;;;;19.13;10.68;;;;;;;4.27;100.00;100737.91;5001857;28;20046;-73
2023/03/17 00:08:32;;;;;;;12.75;9.20;;;;;;;4.53;100.00;100769.00;5000488;28;20528;-73
2023/03/17 00:10:58;;;;;;;14.23;9.57;;;;;;;4.96;100.00;100867.31;4999400;28;20097;-73
2023/03/17 00:13:23;;;;;;;18.83;10.68;;;;;;;5.00;100.00;100876.13;5000435;28;20129;-73
2023/03/17 00:16:00;;;;;;;13.32;10.48;;;;;;;4.69;100.00;100798.94;5006010;28;20037;-75
2023/03/17 00:18:29;;;;;;;17.73;11.38;;;;;;;5.06;100.00;100873.72;4999559;28;20096;-73
2023/03/17 00:20:54;;;;;;;18.13;12.07;;;;;;;5.12;100.00;100873.88;5000972;28;20046;-76
2023/03/17 00:23:23;;;;;;;17.63;11.32;;;;;;;4.25;100.00;100726.59;5002206;28;20501;-74
2023/03/17 00:25:52;;;;;;;19.70;12.48;;;;;;;4.97;100.00;100856.09;5001636;28;20096;-75
2023/03/17 00:28:23;;;;;;;18.35;10.88;;;;;;;5.19;100.00;100908.75;5001476;28;20132;-75
2023/03/17 00:30:53;;;;;;;17.23;12.40;;;;;;;5.12;100.00;100880.81;5002637;28;20034;-75
2023/03/17 00:33:23;;;;;;;20.83;12.27;;;;;;;5.00;100.00;100853.59;5006252;28;20076;-73
2023/03/17 00:35:49;;;;;;;20.65;12.32;;;;;;;5.01;100.00;100849.25;5002091;28;20048;-73
2023/03/17 00:38:17;;;;;;;17.35;11.82;;;;;;;4.26;100.00;100750.84;5006962;28;20057;-75
2023/03/17 00:40:46;;;;;;;16.27;9.88;;;;;;;4.96;100.00;100869.94;5000210;28;20046;-74
2023/03/17 00:43:12;;;;;;;15.88;11.30;;;;;;;4.67;100.00;100824.00;5002527;28;20073;-74
2023/03/17 00:45:39;;;;;;;16.48;10.27;;;;;;;4.99;100.00;100869.16;5008809;28;20044;-74
2023/03/17 00:48:19;;;;;;;19.67;11.05;;;;;;;4.22;100.00;100744.69;4994918;28;20043;-74
2023/03/17 00:50:46;;;;;;;16.08;10.52;;;;;;;4.84;100.00;100857.44;4999003;28;20081;-74
2023/03/17 00:53:15;;;;;;;14.65;9.75;;;;;;;4.94;100.00;100876.81;5006645;28;20085;-75
2023/03/17 00:55:43;;;;;;;22.77;10.23;;;;;;;5.00;100.00;100886.53;5000430;28;20073;-73
2023/03/17 00:58:24;;;;;;;15.90;10.25;;;;;;;5.15;100.00;100906.91;4999876;28;20397;-74
2023/03/17 01:00:50;;;;;;;17.80;12.50;;;;;;;4.48;100.00;100788.75;4997668;28;20147;-75
2023/03/17 01:03:16;;;;;;;15.50;10.85;;;;;;;4.22;100.00;100753.34;5005411;28;20040;-74
2023/03/17 01:05:42;;;;;;;18.85;10.77;;;;;;;4.83;100.00;100858.28;5003872;28;20034;-79
2023/03/17 01:08:08;;;;;;;16.25;8.95;;;;;;;4.90;100.00;100869.75;5004395;28;20048;-74
2023/03/17 01:10:34;;;;;;;18.85;9.68;;;;;;;4.84;100.00;100886.03;4994421;28;20046;-73
2023/03/17 01:13:00;;;;;;;15.75;9.05;;;;;;;4.99;100.00;100910.78;5000912;28;20433;-73
2023/03/17 01:15:30;;;;;;;17.90;10.63;;;;;;;4.85;100.00;100874.81;5000252;28;20034;-73
2023/03/17 01:17:57;;;;;;;19.08;11.45;;;;;;;5.05;100.00;100913.53;4997434;28;20188;-74
2023/03/17 01:20:29;;;;;;;13.48;9.43;;;;;;;4.27;100.00;100801.97;5001675;28;20046;-74
2023/03/17 01:22:55;;;;;;;13.70;9.50;;;;;;;4.69;100.00;100911.56;4996960;28;20050;-74
2023/03/17 01:25:20;;;;;;;22.77;10.07;;;;;;;3.94;100.00;100753.31;5002649;28;20049;-73
2023/03/17 01:27:47;;;;;;;15.55;12.35;;;;;;;3.35;100.00;100646.75;4994648;28;20033;-73
2023/03/17 01:30:37;;;;;;;17.70;11.90;;;;;;;4.74;100.00;100916.91;4995902;28;20061;-75
2023/03/17 01:33:04;;;;;;;17.48;9.60;;;;;;;4.52;100.00;100840.88;4995967;28;20859;-73
2023/03/17 01:35:30;;;;;;;26.73;11.20;;;;;;;4.72;100.00;100882.19;4999865;28;20057;-73
2023/03/17 01:37:56;;;;;;;14.77;10.43;;;;;;;3.89;100.00;100753.16;5000007;28;20038;-73
2023/03/17 01:40:26;;;;;;;19.83;11.20;;;;;;;3.84;100.00;100762.53;4999339;28;20084;-73
2023/03/17 01:43:12;;;;;;;14.40;10.43;;;;;;;4.81;100.00;100898.06;4996928;28;20034;-74
2023/03/17 01:46:15;;;;;;;16.27;10.77;;;;;;;4.83;100.00;100905.09;4992751;28;20077;-73
2023/03/17 01:49:05;;;;;;;19.27;9.85;;;;;;;4.73;100.00;100915.13;4984666;28;20086;-75
2023/03/17 01:52:03;;;;;;;15.25;10.13;;;;;;;3.93;100.00;100798.25;5001738;28;20505;-73
2023/03/17 01:54:41;;;;;;;15.32;10.23;;;;;;;3.56;100.00;100756.41;5004146;28;20502;-74
2023/03/17 01:57:20;;;;;;;14.27;9.18;;;;;;;4.55;100.00;100907.66;4996233;28;20042;-73
2023/03/17 01:59:52;;;;;;;17.75;11.27;;;;;;;4.39;100.00;100895.88;4999334;28;20054;-74
2023/03/17 02:02:23;;;;;;;22.50;11.18;;;;;;;3.78;100.00;100832.38;5001894;28;20502;-75
2023/03/17 02:04:51;;;;;;;15.18;8.90;;;;;;;4.28;100.00;100912.81;4998050;28;20136;-73
2023/03/17 02:07:19;;;;;;;15.60;10.30;;;;;;;4.20;100.00;100869.28;4999327;28;20077;-76
2023/03/17 02:09:46;;;;;;;18.05;10.15;;;;;;;4.21;100.00;100904.84;5004007;28;20036;-74
2023/03/17 02:12:12;;;;;;;19.65;10.10;;;;;;;3.54;100.00;100773.63;4998896;28;20476;-74
2023/03/17 02:14:38;;;;;;;13.50;9.88;;;;;;;4.32;100.00;100906.91;5004903;28;20119;-75
2023/03/17 02:17:04;;;;;;;16.70;11.32;;;;;;;4.01;100.00;100859.13;5004424;28;20052;-74
2023/03/17 02:19:30;;;;;;;16.45;11.10;;;;;;;3.66;100.00;100786.13;4999926;28;20042;-76
2023/03/17 02:21:58;;;;;;;14.25;9.32;;;;;;;3.54;100.00;100771.03;4997214;28;20038;-75
2023/03/17 02:24:37;;;;;;;15.98;9.60;;;;;;;3.52;100.00;100793.44;5001935;28;20065;-75
2023/03/17 02:27:27;;;;;;;17.27;11.07;;;;;;;4.18;100.00;100920.28;5005176;28;20077;-75
2023/03/17 02:29:52;;;;;;;14.07;10.32;;;;;;;4.19;100.00;100922.06;5001381;28;20049;-73
2023/03/17 02:32:18;;;;;;;17.83;10.95;;;;;;;4.07;100.00;100924.22;5000500;28;20052;-73
2023/03/17 02:34:47;;;;;;;14.38;9.05;;;;;;;4.07;100.00;100934.63;4995189;28;20046;-73
2023/03/17 02:37:14;;;;;;;15.50;9.25;;;;;;;3.86;100.00;100923.47;5003860;28;20077;-75
2023/03/17 02:39:39;;;;;;;17.10;11.73;;;;;;;3.92;100.00;100923.72;4998919;28;20038;-73
2023/03/17 02:42:05;;;;;;;16.20;9.82;;;;;;;3.75;100.00;100900.63;5028162;28;20050;-73
2023/03/17 02:44:31;;;;;;;17.08;11.38;;;;;;;3.07;100.00;100777.16;5002253;28;20474;-73
2023/03/17 02:46:58;;;;;;;19.02;9.48;;;;;;;3.16;100.00;100777.44;4999548;28;20085;-73
2023/03/17 02:49:25;;;;;;;16.13;9.85;;;;;;;4.00;100.00;100928.34;5000645;28;20088;-74
2023/03/17 02:51:52;;;;;;;14.27;10.75;;;;;;;3.62;100.00;100843.94;4998729;28;20103;-75
2023/03/17 02:54:17;;;;;;;20.02;11.38;;;;;;;3.89;100.00;100946.97;5000193;28;20049;-73
2023/03/17 02:56:43;;;;;;;16.58;10.45;;;;;;;3.78;100.00;100943.97;5001806;28;20761;-74
2023/03/17 02:59:09;;;;;;;16.05;8.27;;;;;;;2.98;100.00;100795.84;4996731;28;20058;-75
2023/03/17 03:01:35;;;;;;;13.13;9.13;;;;;;;3.13;100.00;100811.06;4999438;28;22293;-73
2023/03/17 03:04:01;;;;;;;15.80;9.27;;;;;;;3.79;100.00;100933.66;5001744;28;20078;-73
2023/03/17 03:06:26;;;;;;;13.27;8.63;;;;;;;3.70;100.00;100914.25;4996228;28;20482;-73
2023/03/17 03:08:52;;;;;;;12.25;8.25;;;;;;;3.01;100.00;100801.13;5001330;28;20057;-74
2023/03/17 03:11:18;;;;;;;13.88;9.55;;;;;;;3.33;100.00;100934.56;5000793;28;20516;-74
2023/03/17 03:13:44;;;;;;;16.83;10.93;;;;;;;3.78;100.00;100938.78;5000815;28;20052;-74
2023/03/17 03:16:09;;;;;;;16.08;9.75;;;;;;;3.06;100.00;100824.63;4992916;28;20057;-72
2023/03/17 03:18:36;;;;;;;15.40;9.00;;;;;;;3.83;100.00;100954.53;5004476;28;20053;-72
2023/03/17 03:21:03;;;;;;;12.43;8.45;;;;;;;3.82;100.00;100961.44;5000181;28;20060;-74
2023/03/17 03:23:29;;;;;;;15.35;9.40;;;;;;;3.57;100.00;100950.16;5006690;28;20050;-74
2023/03/17 03:25:54;;;;;;;18.10;9.32;;;;;;;3.65;100.00;100966.00;5005521;28;20201;-72
2023/03/17 03:28:20;;;;;;;15.18;9.55;;;;;;;2.81;100.00;100800.41;5006769;28;20116;-73
2023/03/17 03:30:45;;;;;;;14.57;9.20;;;;;;;3.28;100.00;100930.91;5005582;28;20516;-73
2023/03/17 03:33:16;;;;;;;13.68;8.45;;;;;;;3.59;100.00;100964.06;5004722;28;20049;-73
2023/03/17 03:35:43;;;;;;;20.08;9.40;;;;;;;3.55;100.00;100961.31;4995130;28;20057;-74
2023/03/17 03:38:09;;;;;;;13.85;9.15;;;;;;;2.72;100.00;100818.19;5000927;28;20092;-74
2023/03/17 03:40:35;;;;;;;12.65;7.90;;;;;;;3.51;100.00;100968.09;4999642;28;20046;-75
2023/03/17 03:43:01;;;;;;;17.30;8.55;;;;;;;2.73;100.00;100819.94;4998963;28;20079;-75
2023/03/17 03:45:27;;;;;;;16.15;11.00;;;;;;;2.90;100.00;100857.78;5004751;28;20505;-75
2023/03/17 03:47:52;;;;;;;15.10;9.02;;;;;;;3.15;100.00;100887.19;5002206;28;20046;-74
2023/03/17 03:50:18;;;;;;;12.02;7.63;;;;;;;2.88;100.00;100832.59;5001401;28;20046;-74
2023/03/17 03:52:43;;;;;;;14.68;8.63;;;;;;;2.84;100.00;100847.16;4999219;28;20121;-74
2023/03/17 03:55:10;;;;;;;16.65;8.93;;;;;;;3.22;100.00;100932.41;5004925;28;20200;-74
2023/03/17 03:57:35;;;;;;;18.50;10.55;;;;;;;2.62;100.00;100855.81;4998449;28;20038;-75
2023/03/17 04:00:01;;;;;;;16.13;9.93;;;;;;;3.39;100.00;100972.81;4996453;28;20064;-72
2023/03/17 04:02:27;;;;;;;13.35;7.45;;;;;;;3.31;100.00;100969.94;5003553;28;20038;-73
2023/03/17 04:04:53;;;;;;;16.08;9.68;;;;;;;3.33;100.00;100972.59;5004458;28;20041;-73
2023/03/17 04:07:20;;;;;;;20.23;9.65;;;;;;;2.70;100.00;100880.31;4996451;28;20436;-73
2023/03/17 04:09:48;;;;;;;15.65;8.68;;;;;;;3.16;100.00;100956.34;5007790;28;20564;-73
2023/03/17 04:12:14;;;;;;;15.70;9.73;;;;;;;2.46;100.00;100840.50;4994451;28;20085;-73
2023/03/17 04:14:40;;;;;;;13.48;10.02;;;;;;;3.21;100.00;100983.38;5005352;28;20053;-76
2023/03/17 04:17:05;;;;;;;14.85;9.85;;;;;;;3.19;100.00;100971.19;5005524;28;20069;-75
2023/03/17 04:19:31;;;;;;;14.27;9.60;;;;;;;3.34;100.00;100974.34;5002216;28;20121;-75
2023/03/17 04:21:56;;;;;;;11.15;6.90;;;;;;;3.20;100.00;100952.19;5007115;28;20788;-75
2023/03/17 04:24:22;;;;;;;14.90;8.77;;;;;;;3.17;100.00;100978.88;5004964;28;20478;-74
2023/03/17 04:26:47;;;;;;;15.93;10.40;;;;;;;3.18;100.00;100998.78;4996280;28;20054;-76
2023/03/17 04:29:14;;;;;;;16.67;8.73;;;;;;;2.54;100.00;100893.47;5005893;28;20112;-76
2023/03/17 04:31:41;;;;;;;18.65;9.13;;;;;;;2.64;100.00;100892.13;5002849;28;20046;-73
2023/03/17 04:34:13;;;;;;;13.40;8.50;;;;;;;3.23;100.00;101002.47;4998878;28;20049;-74
2023/03/17 04:36:39;;;;;;;18.40;9.57;;;;;;;3.37;100.00;101000.41;4992344;28;20072;-74
2023/03/17 04:39:04;;;;;;;15.23;9.95;;;;;;;3.38;100.00;101002.19;5001397;28;20057;-77
2023/03/17 04:41:30;;;;;;;10.07;6.45;;;;;;;2.93;100.00;100924.38;4996611;28;20053;-73
2023/03/17 04:43:55;;;;;;;15.48;9.82;;;;;;;3.28;100.00;100961.16;5000539;28;20140;-76
2023/03/17 04:46:21;;;;;;;12.15;7.78;;;;;;;2.72;100.00;100870.88;5001175;28;20052;-75
2023/03/17 04:48:46;;;;;;;15.38;9.07;;;;;;;3.03;100.00;100892.81;5010947;28;20045;-76
2023/03/17 04:51:12;;;;;;;12.15;8.55;;;;;;;2.98;100.00;100904.72;5020751;28;20502;-74
2023/03/17 04:53:37;;;;;;;17.35;9.05;;;;;;;2.89;100.00;100905.22;5004896;28;20132;-74
2023/03/17 04:56:03;;;;;;;14.93;8.30;;;;;;;3.44;100.00;101009.28;5004179;28;20046;-75
2023/03/17 04:58:28;;;;;;;15.98;10.35;;;;;;;2.86;100.00;100891.28;5004941;28;20053;-76
2023/03/17 05:00:54;;;;;;;24.00;10.45;;;;;;;2.98;100.00;100894.34;4999959;28;20022;-75
2023/03/17 05:03:20;;;;;;;16.52;9.68;;;;;;;3.44;100.00;100986.88;5002779;28;20691;-75
2023/03/17 05:05:46;;;;;;;15.25;8.38;;;;;;;3.03;100.00;100891.94;5004033;28;20042;-77
2023/03/17 05:08:12;;;;;;;28.88;9.63;;;;;;;3.74;100.00;101032.94;4999595;28;20106;-74
2023/03/17 05:10:37;;;;;;;16.75;9.13;;;;;;;3.71;100.00;101020.72;4996867;28;21054;-75
2023/03/17 05:13:03;;;;;;;15.80;9.43;;;;;;;3.65;100.00;100999.72;4996037;28;20064;-75
2023/03/17 05:15:29;;;;;;;18.35;10.23;;;;;;;2.94;100.00;100915.78;4998228;28;20096;-74
2023/03/17 05:17:55;;;;;;;18.42;12.43;;;;;;;3.71;100.00;101015.53;4998322;28;20046;-74
2023/03/17 05:20:20;;;;;;;14.40;9.30;;;;;;;3.89;100.00;101050.81;4997872;28;20042;-77
2023/03/17 05:22:46;;;;;;;12.95;7.80;;;;;;;3.91;100.00;101052.63;5000370;28;20046;-74
2023/03/17 05:25:11;;;;;;;17.73;10.57;;;;;;;3.37;100.00;100941.66;5001446;28;20081;-74
2023/03/17 05:27:37;;;;;;;17.92;10.35;;;;;;;3.65;100.00;101006.63;4997520;28;21200;-75
2023/03/17 05:30:03;;;;;;;18.40;10.40;;;;;;;3.98;100.00;101058.91;4994511;28;20038;-74
2023/03/17 05:32:28;;;;;;;16.75;10.25;;;;;;;3.72;100.00;101038.09;4995332;28;20065;-74
2023/03/17 05:34:54;;;;;;;17.80;10.02;;;;;;;3.04;100.00;100927.38;4998563;28;20200;-74
2023/03/17 05:37:20;;;;;;;20.42;10.27;;;;;;;3.67;100.00;101049.09;4996966;28;20045;-73
2023/03/17 05:39:45;;;;;;;16.88;10.32;;;;;;;3.24;100.00;101016.31;5003113;28;20391;-75
2023/03/17 05:42:11;;;;;;;17.90;10.70;;;;;;;3.08;100.00;100926.69;5003172;28;20049;-73
2023/03/17 05:44:37;;;;;;;19.27;9.20;;;;;;;3.42;100.00;100952.19;5000555;28;20046;-74
2023/03/17 05:47:02;;;;;;;19.70;11.85;;;;;;;4.14;100.00;101069.03;5004592;28;20077;-75
2023/03/17 05:49:28;;;;;;;15.65;10.23;;;;;;;3.61;100.00;100977.09;5004176;28;20073;-76
2023/03/17 05:51:54;;;;;;;14.60;8.90;;;;;;;4.39;100.00;101107.19;4993637;28;20053;-75
2023/03/17 05:54:21;;;;;;;13.63;8.40;;;;;;;3.87;100.00;101024.78;4996447;28;20030;-76
2023/03/17 05:56:47;;;;;;;16.13;8.75;;;;;;;4.69;100.00;101155.03;5000669;28;20054;-75
2023/03/17 05:59:15;;;;;;;17.00;7.57;;;;;;;4.34;100.00;101152.03;5004123;28;20053;-75
2023/03/17 06:01:41;;;;;;;13.43;7.32;;;;;;;3.91;100.00;101067.31;4998444;28;20058;-74
2023/03/17 06:04:07;;;;;;;11.70;7.22;;;;;;;4.18;100.00;101112.47;4991865;28;20034;-75
2023/03/17 06:06:33;;;;;;;12.30;7.53;;;;;;;3.76;100.00;101032.16;5002108;28;20181;-76
2023/03/17 06:08:59;;;;;;;10.93;6.03;;;;;;;4.81;100.00;101239.53;4995879;28;20049;-74
2023/03/17 06:11:26;;;;;;;13.88;7.35;;;;;;;4.75;100.00;101200.34;5000400;28;20420;-73
2023/03/17 06:13:52;;;;;;;11.27;7.03;;;;;;;4.69;100.00;101171.50;4998102;28;20050;-75
2023/03/17 06:16:18;;;;;;;11.65;6.05;;;;;;;4.60;100.00;101177.25;4999013;28;20363;-77
2023/03/17 06:18:44;;;;;;;11.30;5.93;;;;;;;5.13;100.00;101303.94;5000119;28;20076;-73
2023/03/17 06:21:11;;;;;;;8.82;6.05;;;;;;;4.61;100.00;101215.44;5000408;28;20073;-74
2023/03/17 06:23:36;;;;;;;7.82;3.50;;;;;;;3.97;100.00;101150.63;4996024;28;20053;-73
2023/03/17 06:26:02;;;;;;;8.38;5.45;;;;;;;5.12;100.00;101365.50;4996311;28;20903;-72
2023/03/17 06:28:28;;;;;;;11.10;5.40;;;;;;;4.67;100.00;101258.06;4997946;28;20053;-73
2023/03/17 06:30:53;;;;;;;8.52;4.55;;;;;;;4.82;100.00;101259.53;4994244;28;20088;-74
2023/03/17 06:33:19;;;;;;;8.73;4.68;;;;;;;5.02;100.00;101283.66;4987958;28;20022;-74
2023/03/17 06:35:44;;;;;;;8.43;4.05;;;;;;;5.38;100.00;101400.28;4990030;28;20054;-74
2023/03/17 06:38:10;;;;;;;26.90;4.45;;;;;;;5.19;100.00;101362.31;4996966;28;20543;-74
2023/03/17 06:40:36;;;;;;;7.97;4.82;;;;;;;5.39;100.00;101399.47;4995150;28;20088;-75
2023/03/17 06:43:02;;;;;;;10.40;5.78;;;;;;;5.33;100.00;101401.84;5005150;28;20034;-74
2023/03/17 06:45:28;;;;;;;8.45;5.28;;;;;;;5.14;100.00;101409.81;4999892;28;20042;-71
2023/03/17 06:47:53;;;;;;;24.33;4.72;;;;;;;4.53;100.00;101274.00;5002955;28;20153;-71
2023/03/17 06:50:19;;;;;;;17.23;5.28;;;;;;;5.10;100.00;101402.69;5000035;28;20450;-73
2023/03/17 06:52:45;;;;;;;9.00;4.65;;;;;;;4.63;100.00;101288.25;4997375;28;20042;-74
2023/03/17 06:55:11;;;;;;;8.43;5.10;;;;;;;4.98;100.00;101338.97;5002545;28;20068;-75
2023/03/17 06:57:36;;;;;;;28.40;6.72;;;;;;;4.91;100.00;101278.88;4999919;28;20091;-73
2023/03/17 07:00:05;;;;;;;11.23;6.45;;;;;;;5.34;100.00;101312.56;5003311;28;20050;-75
2023/03/17 07:02:32;;;;;;;17.17;7.18;;;;;;;5.32;100.00;101336.75;5004226;28;20038;-75
2023/03/17 07:04:59;;;;;;;21.40;7.05;;;;;;;5.55;100.00;101393.13;4997735;28;20050;-74
2023/03/17 07:07:27;;;;;;;7.72;5.07;;;;;;;5.59;100.00;101381.97;5003676;28;20690;-74
2023/03/17 07:09:53;;;;;;;17.08;6.95;;;;;;;5.47;100.00;101379.81;4991567;28;20038;-73
2023/03/17 07:12:19;;;;;;;9.95;5.78;;;;;;;5.24;100.00;101287.94;5032162;28;20084;-77
2023/03/17 07:14:45;;;;;;;11.77;5.57;;;;;;;6.09;100.00;101382.03;5003998;28;20133;-74
2023/03/17 07:17:13;;;;;;;10.10;6.05;;;;;;;6.17;100.00;101421.34;5008573;28;20743;-77
2023/03/17 07:19:39;;;;;;;11.48;6.95;;;;;;;6.05;100.00;101391.44;5002139;28;20065;-75
2023/03/17 07:22:05;;;;;;;9.48;6.50;;;;;;;5.80;100.00;101380.97;5006719;28;20030;-74
2023/03/17 07:24:31;;;;;;;11.25;6.40;;;;;;;6.25;100.00;101406.84;5008443;28;20037;-74
2023/03/17 07:26:57;;;;;;;11.18;5.75;;;;;;;6.39;100.00;101399.50;5006360;28;20061;-77
2023/03/17 07:29:22;;;;;;;11.02;6.72;;;;;;;6.52;100.00;101410.38;5004112;28;20100;-73
2023/03/17 07:31:48;;;;;;;13.02;7.57;;;;;;;6.34;100.00;101412.38;5008838;28;20058;-75
2023/03/17 07:34:14;;;;;;;15.48;8.85;;;;;;;6.61;100.00;101415.00;5008094;28;20183;-73
2023/03/17 07:36:40;;;;;;;11.27;5.90;;;;;;;6.74;100.00;101406.75;5004434;28;20030;-76
2023/03/17 07:39:06;;;;;;;19.90;8.13;;;;;;;6.87;100.00;101397.56;5006558;28;20034;-75
2023/03/17 07:41:31;;;;;;;15.75;10.88;;;;;;;6.16;100.00;101273.66;5005516;28;20052;-73
2023/03/17 07:43:57;;;;;;;13.70;8.25;;;;;;;6.74;100.00;101391.09;4999540;28;20179;-74
2023/03/17 07:46:23;;;;;;;10.13;6.35;;;;;;;6.57;100.00;101314.06;5001672;28;20499;-74
2023/03/17 07:48:48;;;;;;;18.38;10.07;;;;;;;6.91;100.00;101398.56;5001126;28;20797;-75
2023/03/17 07:51:17;;;;;;;14.82;10.82;;;;;;;6.21;100.00;101286.00;4999840;28;20046;-75
2023/03/17 07:53:45;;;;;;;12.55;7.60;;;;;;;7.08;100.00;101407.78;5008146;28;20049;-74
2023/03/17 07:56:11;;;;;;;17.85;10.25;;;;;;;6.52;100.00;101373.88;4996998;28;20130;-75
2023/03/17 07:58:36;;;;;;;15.77;10.95;;;;;;;7.18;100.00;101407.22;5004711;28;20034;-74
2023/03/17 08:01:02;;;;;;;12.73;7.65;;;;;;;7.20;100.00;101409.88;5001592;28;20845;-73
2023/03/17 08:03:29;;;;;;;10.45;7.43;;;;;;;7.10;100.00;101410.44;5000961;28;20440;-74
2023/03/17 08:05:56;;;;;;;21.50;10.93;;;;;;;7.29;100.00;101394.47;5006774;28;20048;-74
2023/03/17 08:08:26;;;;;;;16.55;10.35;;;;;;;7.53;100.00;101389.06;5007775;28;20430;-74
2023/03/17 08:10:52;;;;;;;21.65;10.48;;;;;;;6.83;100.00;101437.44;5001484;28;20095;-75
2023/03/17 08:13:18;;;;;;;12.27;8.55;;;;;;;5.93;100.00;101312.84;4998639;28;20966;-73
2023/03/17 08:15:45;;;;;;;14.48;9.50;;;;;;;7.13;100.00;101394.88;4986753;28;20038;-74
2023/03/17 08:18:11;;;;;;;13.73;6.82;;;;;;;7.26;100.00;101411.75;5001547;28;20061;-73
2023/03/17 08:20:37;;;;;;;15.95;10.35;;;;;;;6.56;100.00;101301.88;5007500;28;20126;-74
2023/03/17 08:23:03;;;;;;;15.15;9.48;;;;;;;7.33;100.00;101388.53;5007473;28;20072;-73
2023/03/17 08:25:28;;;;;;;11.48;8.50;;;;;;;7.35;100.00;101292.84;5005747;28;20442;-74
2023/03/17 08:27:54;;;;;;;18.85;10.85;;;;;;;7.50;100.00;101302.81;5007523;28;20176;-74
2023/03/17 08:30:20;;;;;;;21.20;11.32;;;;;;;6.52;100.00;101297.38;5004456;28;20129;-76
2023/03/17 08:32:46;;;;;;;20.45;11.27;;;;;;;7.35;100.00;101397.28;5005693;28;20046;-75
2023/03/17 08:35:17;;;;;;;13.63;8.80;;;;;;;7.79;99.83;101389.78;5002425;28;20449;-75
2023/03/17 08:37:44;;;;;;;10.07;7.22;;;;;;;7.60;99.75;101314.38;4996564;28;20149;-78
2023/03/17 08:40:16;;;;;;;11.40;6.80;;;;;;;7.35;84.74;101415.56;4990991;28;20045;-74
2023/03/17 08:42:43;;;;;;;10.15;5.93;;;;;;;7.68;84.78;101421.69;5003772;28;20180;-75
2023/03/17 08:45:09;;;;;;;12.82;6.22;;;;;;;7.43;91.85;101405.34;5000699;28;20131;-75
2023/03/17 08:47:37;;;;;;;14.32;7.22;;;;;;;6.53;94.66;101325.22;4986121;28;20204;-74
2023/03/17 08:50:05;;;;;;;40.63;10.25;;;;;;;6.97;98.16;101386.56;4995250;28;20042;-75
2023/03/17 08:52:31;;;;;;;23.25;8.07;;;;;;;6.69;95.12;101327.44;5003277;28;20065;-74
2023/03/17 08:54:57;;;;;;;14.27;6.18;;;;;;;6.66;84.51;101308.25;4998043;28;20060;-74
2023/03/17 08:57:23;;;;;;;13.20;6.00;;;;;;;7.10;81.33;101346.09;5001608;28;20138;-73
2023/03/17 08:59:49;;;;;;;23.98;8.02;;;;;;;7.37;93.94;101400.81;4998240;28;20043;-73
2023/03/17 09:02:15;;;;;;;15.77;6.43;;;;;;;7.64;93.47;101378.06;4998182;28;20074;-76
2023/03/17 09:04:41;;;;;;;19.45;8.00;;;;;;;7.51;90.21;101321.97;5005589;28;20133;-75
2023/03/17 09:07:09;;;;;;;12.93;6.47;;;;;;;7.86;90.90;101398.69;4999021;28;20105;-74
2023/03/17 09:09:35;;;;;;;41.17;10.90;;;;;;;7.25;94.79;101379.56;5005573;28;20037;-74
2023/03/17 09:12:03;;;;;;;10.45;6.20;;;;;;;7.53;99.30;101365.56;4995928;28;20570;-75
2023/03/17 09:14:29;;;;;;;10.82;7.32;;;;;;;7.69;91.09;101345.09;4996526;28;20085;-74
2023/03/17 09:16:55;;;;;;;10.75;6.40;;;;;;;7.59;87.15;101333.53;5001382;28;20439;-74
2023/03/17 09:19:22;;;;;;;15.05;6.28;;;;;;;7.18;81.97;101287.16;5001514;28;20421;-73
2023/03/17 09:21:49;;;;;;;30.92;7.15;;;;;;;7.60;81.71;101377.06;5005385;28;20086;-79
2023/03/17 09:24:15;;;;;;;9.95;5.57;;;;;;;6.95;90.30;101294.34;5000512;28;20072;-76
2023/03/17 09:26:40;;;;;;;9.02;6.32;;;;;;;7.43;80.90;101402.72;5001315;28;20085;-75
2023/03/17 09:29:06;;;;;;;8.88;5.40;;;;;;;6.93;83.00;101308.16;4998396;28;20046;-74
2023/03/17 09:31:34;;;;;;;10.02;5.47;;;;;;;7.02;79.70;101310.16;5006499;28;20391;-73
2023/03/17 09:34:00;;;;;;;10.88;6.43;;;;;;;7.20;81.74;101375.94;5004471;28;20153;-74
2023/03/17 09:36:25;;;;;;;9.68;5.63;;;;;;;7.02;83.55;101304.94;5007101;28;20132;-75
2023/03/17 09:38:51;;;;;;;11.20;6.03;;;;;;;7.83;81.23;101399.47;5002666;28;20517;-74
2023/03/17 09:41:44;;;;;;;25.40;6.72;;;;;;;8.21;77.43;101394.38;4999864;28;20390;-75
2023/03/17 09:44:54;;;;;;;12.25;6.75;;;;;;;7.82;78.33;101342.84;4999886;28;20046;-74
2023/03/17 09:47:34;;;;;;;10.20;5.63;;;;;;;8.38;78.56;101406.97;5001987;28;20045;-74
2023/03/17 09:50:07;;;;;;;15.48;5.90;;;;;;;7.13;76.83;101280.91;4999257;28;20079;-76
2023/03/17 09:52:35;;;;;;;10.07;5.63;;;;;;;8.36;82.42;101388.66;5004596;28;20041;-80
2023/03/17 09:55:04;;;;;;;12.10;6.00;;;;;;;8.90;73.25;101374.25;4999840;28;20117;-74
2023/03/17 09:57:38;;;;;;;10.40;5.85;;;;;;;8.91;67.03;101385.59;5005337;28;20030;-74
2023/03/17 10:00:10;;;;;;;15.50;7.22;;;;;;;9.06;74.37;101385.94;4999657;28;20038;-77
2023/03/17 10:02:36;;;;;;;11.52;6.13;;;;;;;9.00;69.90;101386.69;5001467;28;20510;-75
2023/03/17 10:05:22;;;;;;;16.27;6.07;;;;;;;8.57;72.99;101269.72;4996447;28;20057;-74
2023/03/17 10:08:14;;;;;;;12.20;5.65;;;;;;;8.66;64.96;101270.81;4996009;28;20038;-74
2023/03/17 10:10:48;;;;;;;10.73;5.32;;;;;;;8.82;68.72;101386.28;4988456;28;20093;-76
2023/03/17 10:13:47;;;;;;;11.77;6.20;;;;;;;8.98;72.38;101377.91;5001070;28;20803;-76
2023/03/17 10:16:32;;;;;;;14.07;6.10;;;;;;;8.71;67.08;101264.78;5000972;28;20050;-78
2023/03/17 10:19:28;;;;;;;8.68;6.07;;;;;;;9.29;65.51;101379.47;4998779;28;20046;-76
2023/03/17 10:21:59;;;;;;;15.00;6.35;;;;;;;8.99;69.08;101360.47;4994151;28;20091;-74
2023/03/17 10:24:28;;;;;;;10.25;6.30;;;;;;;8.58;76.87;101369.16;5000690;28;20462;-76
2023/03/17 10:26:57;;;;;;;9.02;5.13;;;;;;;8.82;69.82;101352.25;5002885;28;20045;-74
2023/03/17 10:29:22;;;;;;;7.80;5.75;;;;;;;8.75;68.73;101256.16;5004964;28;20655;-73
2023/03/17 10:31:53;;;;;;;31.35;6.72;;;;;;;9.46;70.02;101356.25;4999134;28;20038;-75
2023/03/17 10:34:26;;;;;;;9.13;6.03;;;;;;;9.12;81.37;101338.06;4997335;28;20136;-75
2023/03/17 10:37:05;;;;;;;9.07;5.80;;;;;;;8.25;68.03;101257.66;5003859;28;20060;-76
2023/03/17 10:39:31;;;;;;;9.60;5.18;;;;;;;8.12;72.74;101347.06;5002716;28;20029;-74
2023/03/17 10:42:08;;;;;;;26.02;7.15;;;;;;;7.93;71.01;101256.88;5005451;28;20425;-74
2023/03/17 10:44:39;;;;;;;9.45;5.30;;;;;;;8.19;70.00;101367.31;5005170;28;20100;-74
2023/03/17 10:47:05;;;;;;;19.92;6.75;;;;;;;8.10;72.06;101309.59;4998840;28;20065;-75
2023/03/17 10:49:35;;;;;;;9.00;5.65;;;;;;;7.79;71.88;101250.44;5000008;28;20050;-74
2023/03/17 10:52:06;;;;;;;10.95;5.47;;;;;;;8.09;68.68;101313.03;5000778;28;20034;-73
2023/03/17 10:54:34;;;;;;;19.58;3.92;;;;;;;8.22;70.73;101363.91;5002980;28;20033;-75
2023/03/17 10:57:05;;;;;;;7.32;3.55;;;;;;;8.48;66.81;101361.06;5005187;28;20041;-74
2023/03/17 10:59:37;;;;;;;16.38;5.57;;;;;;;8.43;73.50;101326.97;4999704;28;20387;-76
2023/03/17 11:02:26;;;;;;;12.43;4.75;;;;;;;8.31;71.01;101258.63;4994683;28;20046;-74
2023/03/17 11:05:02;;;;;;;9.90;4.85;;;;;;;8.56;69.62;101351.66;4991217;28;20100;-76
2023/03/17 11:07:39;;;;;;;10.75;4.45;;;;;;;7.91;69.74;101229.81;4996918;28;20053;-75
2023/03/17 11:10:18;;;;;;;8.60;4.60;;;;;;;8.34;65.17;101343.28;4995998;28;20070;-73
2023/03/17 11:12:49;;;;;;;7.00;5.18;;;;;;;8.86;61.75;101343.63;5001932;28;20060;-76
2023/03/17 11:15:16;;;;;;;10.93;5.28;;;;;;;8.66;62.70;101246.38;4991569;28;20570;-73
2023/03/17 11:17:59;;;;;;;23.73;6.00;;;;;;;9.24;66.02;101292.06;5003367;28;20041;-77
2023/03/17 11:20:43;;;;;;;14.32;6.22;;;;;;;9.57;63.25;101229.78;5001254;28;20042;-73
2023/03/17 11:23:33;;;;;;;22.35;6.13;;;;;;;10.76;58.29;101319.97;4999272;28;20077;-75